Time;durP1;ratioP1;P1;durP2;ratioP2;P2;SDS_P1;SDS_P2;PMS_P1;PMS_P2;Temp;Humidity;BMP_temperature;BMP_pressure;BME280_temperature;BME280_humidity;BME280_pressure;Samples;Min_cycle;Max_cycle;Signal;HPM_P1;HPM_P2
2023/04/10 00:01:38;;;;;;;72.03;50.65;;;;;;;;;;5033951;28;20056;-64
2023/04/10 00:04:08;;;;;;;73.18;53.00;;;;;;;;;;5051295;28;20068;-64
2023/04/10 00:06:34;;;;;;;75.70;50.50;;;;;;;;;;5033813;28;20485;-63
2023/04/10 00:09:00;;;;;;;80.05;51.63;;;;;;;;;;5051843;28;20067;-62
2023/04/10 00:11:26;;;;;;;79.28;53.08;;;;;;;;;;5033667;28;20499;-63
2023/04/10 00:13:53;;;;;;;76.65;53.92;;;;;;;;;;5050969;28;20110;-64
2023/04/10 00:16:19;;;;;;;70.20;49.97;;;;;;;;;;5051669;28;20029;-63
2023/04/10 00:18:45;;;;;;;79.53;51.90;;;;;;;;;;5051480;28;20082;-65
2023/04/10 00:21:11;;;;;;;74.60;51.15;;;;;;;;;;5033581;28;20056;-64
2023/04/10 00:23:37;;;;;;;79.85;53.55;;;;;;;;;;5050537;28;20028;-64
2023/04/10 00:26:03;;;;;;;82.43;51.67;;;;;;;;;;5033369;28;20091;-63
2023/04/10 00:28:29;;;;;;;90.35;55.08;;;;;;;;;;5051247;28;20027;-64
2023/04/10 00:30:55;;;;;;;80.45;52.60;;;;;;;;;;5051286;28;20551;-63
2023/04/10 00:33:21;;;;;;;84.70;54.15;;;;;;;;;;5049290;28;20071;-63
2023/04/10 00:35:47;;;;;;;87.65;54.50;;;;;;;;;;5051239;28;20029;-63
2023/04/10 00:38:13;;;;;;;85.13;53.78;;;;;;;;;;5049900;28;20021;-64
2023/04/10 00:40:39;;;;;;;93.75;54.00;;;;;;;;;;5051013;28;20048;-63
2023/04/10 00:43:05;;;;;;;80.65;52.05;;;;;;;;;;5050371;28;20083;-64
2023/04/10 00:45:31;;;;;;;85.75;55.72;;;;;;;;;;5050760;28;20025;-64
2023/04/10 00:47:57;;;;;;;86.32;54.38;;;;;;;;;;5049961;28;20039;-64
2023/04/10 00:50:24;;;;;;;88.22;56.70;;;;;;;;;;5050838;28;20029;-62
2023/04/10 00:52:50;;;;;;;95.32;56.75;;;;;;;;;;5049442;28;20041;-63
2023/04/10 00:55:16;;;;;;;88.57;55.08;;;;;;;;;;5050194;28;20469;-64
2023/04/10 00:57:47;;;;;;;94.20;54.35;;;;;;;;;;5050672;28;20393;-62
2023/04/10 01:00:14;;;;;;;88.43;54.25;;;;;;;;;;5049450;28;20013;-60
2023/04/10 01:02:40;;;;;;;85.65;52.85;;;;;;;;;;5050686;28;20029;-63
2023/04/10 01:05:07;;;;;;;88.00;53.55;;;;;;;;;;5049966;28;20021;-63
2023/04/10 01:07:42;;;;;;;89.97;56.35;;;;;;;;;;5050839;28;20111;-63
2023/04/10 01:10:11;;;;;;;89.45;54.05;;;;;;;;;;5050736;28;20063;-63
2023/04/10 01:12:44;;;;;;;90.93;51.55;;;;;;;;;;5050765;28;20090;-64
2023/04/10 01:15:18;;;;;;;91.43;56.38;;;;;;;;;;5048545;28;20021;-64
2023/04/10 01:17:47;;;;;;;84.75;55.95;;;;;;;;;;5049452;28;20044;-63
2023/04/10 01:20:15;;;;;;;93.13;55.95;;;;;;;;;;5050399;28;20025;-63
2023/04/10 01:23:01;;;;;;;88.97;52.50;;;;;;;;;;5047960;28;20092;-62
2023/04/10 01:25:43;;;;;;;86.18;53.47;;;;;;;;;;5043407;28;20031;-64
2023/04/10 01:28:18;;;;;;;87.55;55.28;;;;;;;;;;5033843;28;20125;-63
2023/04/10 01:30:46;;;;;;;89.03;54.35;;;;;;;;;;5050853;28;20021;-63
2023/04/10 01:33:12;;;;;;;88.28;53.83;;;;;;;;;;5050237;28;20017;-64
2023/04/10 01:35:40;;;;;;;81.20;51.75;;;;;;;;;;5050347;28;20517;-63
2023/04/10 01:38:07;;;;;;;85.00;52.70;;;;;;;;;;5050291;28;20029;-64
2023/04/10 01:40:34;;;;;;;87.95;52.63;;;;;;;;;;5065883;28;20079;-64
2023/04/10 01:43:03;;;;;;;85.13;53.03;;;;;;;;;;5050260;28;20055;-64
2023/04/10 01:45:29;;;;;;;84.95;52.80;;;;;;;;;;5049903;28;20072;-64
2023/04/10 01:47:55;;;;;;;84.70;52.67;;;;;;;;;;5050326;28;20031;-65
2023/04/10 01:50:23;;;;;;;84.97;51.63;;;;;;;;;;5040229;28;20120;-62
2023/04/10 01:52:50;;;;;;;88.05;51.63;;;;;;;;;;5050002;28;20029;-65
2023/04/10 01:55:16;;;;;;;84.13;50.88;;;;;;;;;;5064769;28;20052;-64
2023/04/10 01:57:43;;;;;;;85.97;52.05;;;;;;;;;;5050073;28;20416;-63
2023/04/10 02:00:09;;;;;;;91.35;54.72;;;;;;;;;;5050176;28;20032;-63
2023/04/10 02:02:36;;;;;;;93.07;56.05;;;;;;;;;;5053712;28;20089;-64
2023/04/10 02:05:02;;;;;;;89.57;53.83;;;;;;;;;;5053259;28;20066;-63
2023/04/10 02:07:28;;;;;;;93.72;55.92;;;;;;;;;;5054120;28;20033;-63
2023/04/10 02:09:57;;;;;;;87.00;53.47;;;;;;;;;;5069777;28;20017;-64
2023/04/10 02:12:36;;;;;;;87.22;52.53;;;;;;;;;;5069567;28;20047;-64
2023/04/10 02:15:05;;;;;;;86.72;55.00;;;;;;;;;;5068635;28;20025;-64
2023/04/10 02:17:31;;;;;;;;;;;;;;;;;;5054679;28;20029;-63
2023/04/10 02:19:58;;;;;;;90.57;53.42;;;;;;;;;;5054012;28;19967;-63
2023/04/10 02:22:25;;;;;;;88.30;54.33;;;;;;;;;;5054098;28;20062;-64
2023/04/10 02:24:52;;;;;;;101.32;55.38;;;;;;;;;;5053453;28;20021;-64
2023/04/10 02:27:31;;;;;;;95.15;55.08;;;;;;;;;;5053946;28;20207;-64
2023/04/10 02:29:57;;;;;;;90.15;52.13;;;;;;;;;;5053840;28;20036;-64
2023/04/10 02:32:23;;;;;;;89.38;54.35;;;;;;;;;;5069109;28;20033;-63
2023/04/10 02:34:49;;;;;;;86.57;52.08;;;;;;;;;;5068503;28;20039;-63
2023/04/10 02:37:15;;;;;;;92.43;54.63;;;;;;;;;;5053734;28;20382;-64
2023/04/10 02:39:41;;;;;;;89.32;54.00;;;;;;;;;;5053828;28;20021;-64
2023/04/10 02:42:07;;;;;;;91.55;52.67;;;;;;;;;;5053657;28;20029;-65
2023/04/10 02:44:33;;;;;;;89.00;53.83;;;;;;;;;;5052756;28;20067;-64
2023/04/10 02:46:59;;;;;;;90.15;53.45;;;;;;;;;;5053671;28;20029;-64
2023/04/10 02:49:26;;;;;;;81.50;50.63;;;;;;;;;;5053585;28;20082;-64
2023/04/10 02:51:52;;;;;;;92.35;55.20;;;;;;;;;;5053438;28;20500;-65
2023/04/10 02:54:18;;;;;;;85.55;52.97;;;;;;;;;;5052594;28;20044;-64
2023/04/10 02:56:44;;;;;;;86.20;53.55;;;;;;;;;;5053047;28;20021;-64
2023/04/10 02:59:10;;;;;;;83.55;52.90;;;;;;;;;;5053260;28;20043;-64
2023/04/10 03:01:38;;;;;;;84.07;52.42;;;;;;;;;;5053302;28;20057;-64
2023/04/10 03:04:04;;;;;;;87.35;52.30;;;;;;;;;;5052551;28;20029;-64
2023/04/10 03:06:30;;;;;;;85.82;51.70;;;;;;;;;;5053085;28;20025;-64
2023/04/10 03:08:56;;;;;;;86.10;52.15;;;;;;;;;;5052969;28;20025;-63
2023/04/10 03:11:22;;;;;;;83.15;53.03;;;;;;;;;;5053135;28;20025;-64
2023/04/10 03:13:50;;;;;;;78.00;50.38;;;;;;;;;;5051206;28;20029;-66
2023/04/10 03:16:18;;;;;;;82.43;51.13;;;;;;;;;;5053274;28;20026;-64
2023/04/10 03:18:45;;;;;;;92.97;53.70;;;;;;;;;;5052830;28;20025;-64
2023/04/10 03:21:11;;;;;;;81.95;48.53;;;;;;;;;;5053035;28;20025;-64
2023/04/10 03:23:37;;;;;;;74.80;48.38;;;;;;;;;;5067526;28;20025;-63
2023/04/10 03:26:03;;;;;;;83.57;49.30;;;;;;;;;;5052357;28;20093;-66
2023/04/10 03:28:29;;;;;;;78.78;47.95;;;;;;;;;;5052723;28;20104;-65
2023/04/10 03:30:56;;;;;;;78.05;48.67;;;;;;;;;;5052432;28;20529;-64
2023/04/10 03:33:22;;;;;;;73.45;46.08;;;;;;;;;;5051751;28;20055;-65
2023/04/10 03:35:48;;;;;;;75.80;48.92;;;;;;;;;;5052098;28;20191;-64
2023/04/10 03:38:14;;;;;;;83.45;49.75;;;;;;;;;;5052342;28;20052;-68
2023/04/10 03:40:40;;;;;;;77.75;47.45;;;;;;;;;;5052345;28;20493;-65
2023/04/10 03:43:06;;;;;;;84.28;47.63;;;;;;;;;;5051713;28;20036;-64
2023/04/10 03:45:33;;;;;;;79.43;47.28;;;;;;;;;;5051786;28;20033;-65
2023/04/10 03:47:59;;;;;;;71.05;45.05;;;;;;;;;;5052203;28;20484;-64
2023/04/10 03:50:25;;;;;;;80.10;45.97;;;;;;;;;;5052008;28;20452;-65
2023/04/10 03:52:51;;;;;;;78.25;48.40;;;;;;;;;;5052212;28;20099;-65
2023/04/10 03:55:20;;;;;;;76.18;50.10;;;;;;;;;;5051234;28;20032;-64
2023/04/10 03:57:47;;;;;;;76.90;47.10;;;;;;;;;;5051946;28;20028;-64
2023/04/10 04:00:14;;;;;;;73.15;44.13;;;;;;;;;;5051971;28;20046;-66
2023/04/10 04:02:43;;;;;;;73.18;47.80;;;;;;;;;;5051777;28;20045;-65
2023/04/10 04:05:09;;;;;;;71.10;45.88;;;;;;;;;;5050746;28;20017;-64
2023/04/10 04:07:35;;;;;;;73.95;47.85;;;;;;;;;;5066908;28;20025;-65
2023/04/10 04:10:01;;;;;;;71.30;45.55;;;;;;;;;;5051950;28;20082;-65
2023/04/10 04:12:27;;;;;;;73.65;48.10;;;;;;;;;;5051722;28;20127;-64
2023/04/10 04:14:53;;;;;;;74.28;44.58;;;;;;;;;;5051278;28;20024;-65
2023/04/10 04:17:19;;;;;;;76.70;47.60;;;;;;;;;;5051525;28;20037;-65
2023/04/10 04:19:45;;;;;;;67.93;42.90;;;;;;;;;;5067124;28;20025;-64
2023/04/10 04:22:12;;;;;;;67.90;43.47;;;;;;;;;;5051406;28;20485;-64
2023/04/10 04:24:37;;;;;;;70.03;43.03;;;;;;;;;;5066046;28;20477;-65
2023/04/10 04:27:04;;;;;;;73.20;44.95;;;;;;;;;;5067026;28;20025;-65
2023/04/10 04:29:30;;;;;;;69.93;44.00;;;;;;;;;;5051629;28;20029;-65
2023/04/10 04:31:56;;;;;;;67.63;44.70;;;;;;;;;;5051635;28;20086;-65
2023/04/10 04:34:22;;;;;;;65.00;44.97;;;;;;;;;;5050690;28;20025;-65
2023/04/10 04:36:48;;;;;;;67.90;44.08;;;;;;;;;;5051300;28;20025;-64
2023/04/10 04:39:14;;;;;;;69.30;42.70;;;;;;;;;;5051274;28;20470;-64
2023/04/10 04:41:40;;;;;;;65.65;42.67;;;;;;;;;;5051219;28;20083;-65
2023/04/10 04:44:06;;;;;;;66.93;41.78;;;;;;;;;;5050474;28;20036;-64
2023/04/10 04:46:32;;;;;;;62.15;41.17;;;;;;;;;;5066375;28;20032;-65
2023/04/10 04:48:58;;;;;;;63.42;40.75;;;;;;;;;;5050786;28;20032;-64
2023/04/10 04:51:24;;;;;;;61.45;38.85;;;;;;;;;;5066274;28;20032;-64
2023/04/10 04:53:50;;;;;;;63.42;39.28;;;;;;;;;;5050511;28;20075;-65
2023/04/10 04:56:16;;;;;;;64.95;39.65;;;;;;;;;;5066471;28;20025;-64
2023/04/10 04:58:42;;;;;;;62.20;38.20;;;;;;;;;;5050881;28;20160;-65
2023/04/10 05:01:08;;;;;;;62.60;38.00;;;;;;;;;;5050980;28;20136;-65
2023/04/10 05:03:35;;;;;;;62.72;38.80;;;;;;;;;;5050108;28;20404;-65
2023/04/10 05:06:01;;;;;;;60.63;38.03;;;;;;;;;;5050739;28;20069;-65
2023/04/10 05:08:27;;;;;;;56.22;36.17;;;;;;;;;;5050691;28;20043;-65
2023/04/10 05:10:53;;;;;;;51.55;35.22;;;;;;;;;;5050463;28;20025;-65
2023/04/10 05:13:19;;;;;;;58.83;36.53;;;;;;;;;;5049738;28;20039;-65
2023/04/10 05:15:45;;;;;;;56.70;35.47;;;;;;;;;;5050601;28;20108;-65
2023/04/10 05:18:12;;;;;;;51.67;33.22;;;;;;;;;;5065903;28;20057;-64
2023/04/10 05:20:38;;;;;;;52.50;34.60;;;;;;;;;;5050616;28;20029;-64
2023/04/10 05:23:05;;;;;;;55.50;33.20;;;;;;;;;;5065341;28;20040;-64
2023/04/10 05:25:31;;;;;;;55.65;33.85;;;;;;;;;;5050230;28;20074;-64
2023/04/10 05:27:57;;;;;;;49.47;31.00;;;;;;;;;;5050411;28;20041;-64
2023/04/10 05:30:23;;;;;;;46.05;31.55;;;;;;;;;;5050390;28;20072;-64
2023/04/10 05:32:49;;;;;;;46.40;30.35;;;;;;;;;;5050385;28;20116;-63
2023/04/10 05:35:15;;;;;;;50.88;31.45;;;;;;;;;;5049183;28;20167;-63
2023/04/10 05:37:41;;;;;;;47.25;29.30;;;;;;;;;;5050392;28;20025;-63
2023/04/10 05:40:08;;;;;;;47.75;30.83;;;;;;;;;;5050631;28;20025;-65
2023/04/10 05:42:34;;;;;;;46.83;29.13;;;;;;;;;;5066625;28;20036;-65
2023/04/10 05:45:00;;;;;;;46.75;29.75;;;;;;;;;;5049617;28;20107;-63
2023/04/10 05:47:26;;;;;;;40.88;26.73;;;;;;;;;;5044179;23;20642;-60
2023/04/10 05:49:52;;;;;;;44.60;28.33;;;;;;;;;;5020533;28;20052;-60
2023/04/10 05:52:18;;;;;;;44.42;27.52;;;;;;;;;;5017268;28;20498;-59
2023/04/10 05:54:44;;;;;;;39.40;26.00;;;;;;;;;;5013590;28;20030;-61
2023/04/10 05:57:10;;;;;;;40.30;25.15;;;;;;;;;;5011819;28;20053;-61
2023/04/10 05:59:36;;;;;;;40.60;27.77;;;;;;;;;;5011965;28;20065;-60
2023/04/10 06:02:02;;;;;;;40.17;23.92;;;;;;;;;;5011707;28;20030;-64
2023/04/10 06:04:28;;;;;;;38.85;24.45;;;;;;;;;;5013350;28;20029;-64
2023/04/10 06:06:54;;;;;;;38.72;22.85;;;;;;;;;;5011536;28;20037;-62
2023/04/10 06:09:20;;;;;;;37.65;23.33;;;;;;;;;;5011737;28;20097;-64
2023/04/10 06:11:46;;;;;;;35.75;22.60;;;;;;;;;;5009995;28;20125;-62
2023/04/10 06:14:12;;;;;;;36.78;23.55;;;;;;;;;;5010880;28;20076;-62
2023/04/10 06:16:38;;;;;;;37.40;22.40;;;;;;;;;;5011498;28;20544;-62
2023/04/10 06:19:04;;;;;;;35.00;21.80;;;;;;;;;;5011422;28;20053;-62
2023/04/10 06:21:30;;;;;;;36.63;22.17;;;;;;;;;;5018534;28;20109;-63
2023/04/10 06:23:56;;;;;;;35.70;20.88;;;;;;;;;;5011067;28;20025;-64
2023/04/10 06:26:24;;;;;;;32.13;20.80;;;;;;;;;;5011481;28;20517;-64
2023/04/10 06:28:50;;;;;;;34.08;20.67;;;;;;;;;;5011491;28;20033;-64
2023/04/10 06:31:19;;;;;;;33.97;21.42;;;;;;;;;;5011394;28;20038;-63
2023/04/10 06:33:45;;;;;;;35.28;22.48;;;;;;;;;;5010810;28;20014;-59
2023/04/10 06:36:11;;;;;;;32.80;21.50;;;;;;;;;;5011288;28;20045;-64
2023/04/10 06:38:37;;;;;;;31.33;20.50;;;;;;;;;;5009931;28;20021;-62
2023/04/10 06:41:05;;;;;;;30.88;20.13;;;;;;;;;;5011320;28;20033;-63
2023/04/10 06:43:32;;;;;;;32.75;21.17;;;;;;;;;;5010783;28;20025;-63
2023/04/10 06:45:58;;;;;;;29.45;20.25;;;;;;;;;;5010748;28;20034;-62
2023/04/10 06:48:24;;;;;;;30.90;19.75;;;;;;;;;;5013519;28;20029;-62
2023/04/10 06:50:50;;;;;;;28.88;18.55;;;;;;;;;;5013114;28;20465;-60
2023/04/10 06:53:16;;;;;;;33.88;18.48;;;;;;;;;;5013764;28;20357;-61
2023/04/10 06:55:42;;;;;;;29.80;20.42;;;;;;;;;;5014625;28;20030;-62
2023/04/10 06:58:08;;;;;;;28.30;19.35;;;;;;;;;;5014706;28;20546;-64
2023/04/10 07:00:33;;;;;;;29.48;17.98;;;;;;;;;;5013486;28;20026;-64
2023/04/10 07:02:59;;;;;;;29.33;18.70;;;;;;;;;;5014377;28;20026;-62
2023/04/10 07:05:25;;;;;;;28.25;18.92;;;;;;;;;;5012267;28;20421;-63
2023/04/10 07:07:52;;;;;;;29.55;19.80;;;;;;;;;;5014121;28;20045;-65
2023/04/10 07:10:18;;;;;;;27.60;18.17;;;;;;;;;;5014276;28;20031;-65
2023/04/10 07:12:44;;;;;;;28.40;17.77;;;;;;;;;;5014024;28;20096;-64
2023/04/10 07:15:11;;;;;;;28.05;18.40;;;;;;;;;;5013413;28;20028;-63
2023/04/10 07:17:37;;;;;;;26.80;18.08;;;;;;;;;;5014079;28;20018;-62
2023/04/10 07:20:03;;;;;;;27.23;18.20;;;;;;;;;;5013016;28;20021;-61
2023/04/10 07:22:30;;;;;;;23.73;16.90;;;;;;;;;;5012985;28;20437;-62
2023/04/10 07:24:57;;;;;;;26.02;17.33;;;;;;;;;;5019609;28;20029;-63
2023/04/10 07:27:23;;;;;;;24.13;17.13;;;;;;;;;;5014010;28;20383;-63
2023/04/10 07:29:50;;;;;;;24.60;17.40;;;;;;;;;;5013861;28;20033;-62
2023/04/10 07:32:16;;;;;;;23.30;17.02;;;;;;;;;;5013744;28;20414;-61
2023/04/10 07:34:43;;;;;;;25.48;17.63;;;;;;;;;;5013954;28;20089;-60
2023/04/10 07:37:09;;;;;;;25.52;17.17;;;;;;;;;;5013883;28;20037;-63
2023/04/10 07:39:38;;;;;;;24.05;17.10;;;;;;;;;;5013767;28;20018;-61
2023/04/10 07:42:04;;;;;;;24.65;16.45;;;;;;;;;;5013723;28;20109;-62
2023/04/10 07:44:30;;;;;;;24.60;17.33;;;;;;;;;;5013049;28;20030;-60
2023/04/10 07:46:57;;;;;;;22.80;16.27;;;;;;;;;;5013267;28;20609;-62
2023/04/10 07:49:23;;;;;;;22.73;16.27;;;;;;;;;;5012379;28;20033;-62
2023/04/10 07:51:49;;;;;;;26.50;17.00;;;;;;;;;;5014688;28;20049;-63
2023/04/10 07:54:15;;;;;;;24.73;16.60;;;;;;;;;;5018592;28;20022;-64
2023/04/10 07:56:41;;;;;;;23.70;17.08;;;;;;;;;;4995713;28;20030;-63
2023/04/10 07:59:08;;;;;;;22.77;16.30;;;;;;;;;;5012837;28;20033;-64
2023/04/10 08:01:34;;;;;;;23.85;16.33;;;;;;;;;;5018530;28;20509;-63
2023/04/10 08:04:00;;;;;;;23.92;16.67;;;;;;;;;;5003089;28;20022;-62
2023/04/10 08:06:26;;;;;;;21.98;15.85;;;;;;;;;;5013154;28;20033;-62
2023/04/10 08:08:52;;;;;;;23.60;16.83;;;;;;;;;;5017406;28;20077;-62
2023/04/10 08:11:25;;;;;;;21.52;14.43;;;;;;;;;;4995497;28;20053;-62
2023/04/10 08:13:52;;;;;;;24.30;16.38;;;;;;;;;;5012137;28;20698;-62
2023/04/10 08:16:22;;;;;;;24.17;15.75;;;;;;;;;;5012964;28;20117;-63
2023/04/10 08:18:48;;;;;;;23.70;15.38;;;;;;;;;;5011795;28;20022;-61
2023/04/10 08:21:14;;;;;;;22.55;15.80;;;;;;;;;;5012942;28;20030;-61
2023/04/10 08:23:40;;;;;;;22.20;15.20;;;;;;;;;;5011950;28;20025;-61
2023/04/10 08:26:06;;;;;;;22.10;14.95;;;;;;;;;;5012694;28;20060;-61
2023/04/10 08:28:32;;;;;;;22.42;14.43;;;;;;;;;;5012769;28;20030;-60
2023/04/10 08:30:58;;;;;;;21.35;14.73;;;;;;;;;;5012570;28;20168;-58
2023/04/10 08:33:24;;;;;;;23.70;15.65;;;;;;;;;;5011941;28;20032;-60
2023/04/10 08:35:50;;;;;;;25.00;15.57;;;;;;;;;;5012484;28;20389;-62
2023/04/10 08:38:16;;;;;;;23.80;16.05;;;;;;;;;;5012630;28;20101;-59
2023/04/10 08:40:43;;;;;;;22.70;15.65;;;;;;;;;;5012509;28;20030;-61
2023/04/10 08:43:09;;;;;;;24.95;16.83;;;;;;;;;;5011851;28;20049;-61
2023/04/10 08:45:35;;;;;;;25.63;16.38;;;;;;;;;;5012344;28;20025;-61
2023/04/10 08:48:02;;;;;;;21.45;14.88;;;;;;;;;;5011444;28;20088;-60
2023/04/10 08:50:30;;;;;;;21.85;14.98;;;;;;;;;;5012253;28;20022;-61
2023/04/10 08:52:59;;;;;;;24.60;15.93;;;;;;;;;;5012039;28;20475;-60
2023/04/10 08:55:25;;;;;;;21.35;14.98;;;;;;;;;;4663867;28;9999847;-62
2023/04/10 08:57:51;;;;;;;23.02;15.85;;;;;;;;;;5007226;28;20068;-63
2023/04/10 09:00:18;;;;;;;22.30;15.45;;;;;;;;;;5008864;28;20754;-59
2023/04/10 09:02:44;;;;;;;21.27;14.82;;;;;;;;;;5009019;28;20025;-63
2023/04/10 09:05:11;;;;;;;22.30;15.43;;;;;;;;;;4994817;28;20022;-57
2023/04/10 09:07:37;;;;;;;22.95;15.43;;;;;;;;;;5008365;28;20025;-61
2023/04/10 09:10:04;;;;;;;23.83;15.73;;;;;;;;;;5008416;28;20037;-62
2023/04/10 09:12:42;;;;;;;22.75;16.33;;;;;;;;;;5006731;28;20030;-62
2023/04/10 09:15:08;;;;;;;20.73;14.27;;;;;;;;;;5007341;28;20076;-62
2023/04/10 09:17:34;;;;;;;23.83;16.13;;;;;;;;;;4991081;28;20049;-60
2023/04/10 09:20:00;;;;;;;21.70;15.10;;;;;;;;;;5008633;28;20105;-62
2023/04/10 09:22:35;;;;;;;21.60;15.65;;;;;;;;;;5003201;28;20498;-63
2023/04/10 09:25:02;;;;;;;22.88;14.70;;;;;;;;;;5008190;28;20029;-59
2023/04/10 09:27:30;;;;;;;21.67;15.27;;;;;;;;;;5008570;28;20021;-63
2023/04/10 09:29:56;;;;;;;20.67;13.43;;;;;;;;;;5008490;28;20057;-61
2023/04/10 09:32:42;;;;;;;19.20;12.70;;;;;;;;;;5008068;28;20080;-64
2023/04/10 09:35:09;;;;;;;19.17;13.10;;;;;;;;;;5007523;28;20052;-63
2023/04/10 09:37:36;;;;;;;18.20;13.23;;;;;;;;;;5008340;28;20018;-64
2023/04/10 09:40:02;;;;;;;19.02;12.68;;;;;;;;;;5009293;28;20029;-60
2023/04/10 09:42:32;;;;;;;18.73;13.05;;;;;;;;;;5007158;28;20387;-60
2023/04/10 09:44:59;;;;;;;17.95;12.35;;;;;;;;;;5007292;28;20490;-61
2023/04/10 09:47:25;;;;;;;18.30;12.93;;;;;;;;;;5013046;28;20041;-60
2023/04/10 09:50:01;;;;;;;17.08;12.15;;;;;;;;;;5009265;28;20608;-58
2023/04/10 09:52:27;;;;;;;17.58;12.15;;;;;;;;;;5014531;28;20482;-60
2023/04/10 09:54:54;;;;;;;17.90;12.40;;;;;;;;;;5005921;28;20041;-61
2023/04/10 09:57:21;;;;;;;23.42;12.18;;;;;;;;;;5007779;28;20112;-62
2023/04/10 09:59:51;;;;;;;17.85;11.10;;;;;;;;;;5007968;28;20489;-62
2023/04/10 10:02:18;;;;;;;16.60;11.30;;;;;;;;;;5008918;28;20033;-60
2023/04/10 10:04:45;;;;;;;18.33;11.30;;;;;;;;;;5008573;28;20034;-59
2023/04/10 10:07:12;;;;;;;16.83;10.60;;;;;;;;;;5011492;28;20453;-60
2023/04/10 10:09:38;;;;;;;16.75;11.48;;;;;;;;;;5011288;28;20072;-61
2023/04/10 10:12:05;;;;;;;16.70;10.32;;;;;;;;;;4993548;28;20028;-62
2023/04/10 10:14:34;;;;;;;17.02;11.35;;;;;;;;;;5010638;28;20084;-62
2023/04/10 10:17:01;;;;;;;16.67;11.10;;;;;;;;;;5011102;28;20046;-60
2023/04/10 10:19:37;;;;;;;16.35;10.50;;;;;;;;;;5011384;28;20025;-62
2023/04/10 10:22:03;;;;;;;16.65;10.20;;;;;;;;;;5011836;28;20486;-61
2023/04/10 10:24:31;;;;;;;17.17;11.20;;;;;;;;;;4996663;28;20065;-59
2023/04/10 10:26:58;;;;;;;16.60;10.27;;;;;;;;;;5014578;28;20456;-59
2023/04/10 10:29:24;;;;;;;16.90;10.77;;;;;;;;;;5012826;28;20081;-62
2023/04/10 10:31:50;;;;;;;17.50;11.15;;;;;;;;;;5018187;28;20030;-61
2023/04/10 10:34:16;;;;;;;16.73;11.15;;;;;;;;;;5013761;28;20025;-60
2023/04/10 10:36:42;;;;;;;16.35;11.13;;;;;;;;;;5014431;28;20026;-60
2023/04/10 10:39:27;;;;;;;17.80;10.88;;;;;;;;;;5013642;28;20529;-62
2023/04/10 10:41:57;;;;;;;15.82;10.10;;;;;;;;;;5014538;28;20034;-61
2023/04/10 10:44:29;;;;;;;16.98;11.00;;;;;;;;;;5013860;28;20030;-63
2023/04/10 10:46:58;;;;;;;17.05;10.75;;;;;;;;;;5014510;28;20120;-61
2023/04/10 10:49:44;;;;;;;16.13;10.57;;;;;;;;;;5013219;28;20049;-61
2023/04/10 10:52:10;;;;;;;15.70;10.35;;;;;;;;;;5013509;28;20080;-62
2023/04/10 10:54:36;;;;;;;16.27;10.77;;;;;;;;;;5012505;28;20026;-59
2023/04/10 10:57:07;;;;;;;17.50;10.90;;;;;;;;;;5014692;28;20029;-62
2023/04/10 10:59:43;;;;;;;17.75;11.27;;;;;;;;;;5017953;28;20022;-62
2023/04/10 11:02:18;;;;;;;17.83;11.02;;;;;;;;;;5003836;28;20041;-63
2023/04/10 11:04:45;;;;;;;17.42;11.18;;;;;;;;;;5004500;28;20394;-63
2023/04/10 11:07:12;;;;;;;16.70;10.93;;;;;;;;;;5034179;28;20032;-63
2023/04/10 11:09:44;;;;;;;16.33;10.75;;;;;;;;;;5021561;28;20117;-62
2023/04/10 11:12:10;;;;;;;18.13;11.77;;;;;;;;;;5020353;28;20022;-61
2023/04/10 11:14:37;;;;;;;16.42;10.95;;;;;;;;;;5016382;28;20037;-63
2023/04/10 11:17:03;;;;;;;17.15;11.77;;;;;;;;;;5014066;28;20092;-59
2023/04/10 11:19:29;;;;;;;17.27;11.80;;;;;;;;;;5002943;28;20587;-62
2023/04/10 11:22:02;;;;;;;17.30;11.40;;;;;;;;;;4994475;28;20030;-59
2023/04/10 11:24:29;;;;;;;15.75;11.02;;;;;;;;;;5005709;28;20025;-62
2023/04/10 11:26:55;;;;;;;16.90;11.20;;;;;;;;;;5015205;28;20034;-60
2023/04/10 11:29:27;;;;;;;16.85;11.07;;;;;;;;;;5013644;28;20037;-58
2023/04/10 11:31:58;;;;;;;16.13;11.27;;;;;;;;;;5013705;28;20033;-58
2023/04/10 11:34:24;;;;;;;16.00;10.60;;;;;;;;;;5012071;28;20034;-62
2023/04/10 11:36:52;;;;;;;16.52;11.30;;;;;;;;;;5013790;28;20026;-60
2023/04/10 11:39:19;;;;;;;16.13;11.10;;;;;;;;;;5013670;28;20494;-60
2023/04/10 11:41:52;;;;;;;17.65;11.50;;;;;;;;;;5013697;28;20040;-60
2023/04/10 11:44:28;;;;;;;16.58;11.48;;;;;;;;;;5012566;28;20104;-60
2023/04/10 11:46:55;;;;;;;18.42;12.02;;;;;;;;;;5011805;28;20034;-62
2023/04/10 11:49:24;;;;;;;16.93;11.97;;;;;;;;;;4363273;23;10021620;-63
2023/04/10 11:51:50;;;;;;;16.98;11.93;;;;;;;;;;5049947;28;20033;-63
2023/04/10 11:54:18;;;;;;;16.83;11.82;;;;;;;;;;5049378;28;20029;-62
2023/04/10 11:56:46;;;;;;;17.88;11.43;;;;;;;;;;5032330;28;20479;-64
2023/04/10 11:59:18;;;;;;;16.98;11.65;;;;;;;;;;5049929;28;20122;-61
2023/04/10 12:01:45;;;;;;;16.42;11.40;;;;;;;;;;5034108;28;20416;-64
2023/04/10 12:04:17;;;;;;;16.45;11.70;;;;;;;;;;5031645;28;20622;-64
2023/04/10 12:06:49;;;;;;;17.25;11.88;;;;;;;;;;5049831;28;20021;-59
2023/04/10 12:09:16;;;;;;;16.17;11.10;;;;;;;;;;5031476;28;20093;-61
2023/04/10 12:11:55;;;;;;;16.67;11.90;;;;;;;;;;5049581;28;20025;-60
2023/04/10 12:14:22;;;;;;;18.63;11.70;;;;;;;;;;5050308;28;20382;-61
2023/04/10 12:16:48;;;;;;;16.73;10.73;;;;;;;;;;5042781;28;20032;-59
2023/04/10 12:19:18;;;;;;;17.90;11.27;;;;;;;;;;5033522;28;20018;-60
2023/04/10 12:21:45;;;;;;;16.58;11.30;;;;;;;;;;5052725;28;20103;-60
2023/04/10 12:24:11;;;;;;;16.77;12.07;;;;;;;;;;5032537;28;20027;-58
2023/04/10 12:26:37;;;;;;;16.83;11.00;;;;;;;;;;5045265;28;20037;-61
2023/04/10 12:29:05;;;;;;;15.57;10.40;;;;;;;;;;5050648;28;20087;-60
2023/04/10 12:31:35;;;;;;;15.02;9.60;;;;;;;;;;5042289;28;20024;-62
2023/04/10 12:34:01;;;;;;;14.77;9.90;;;;;;;;;;5045054;28;20531;-62
2023/04/10 12:36:28;;;;;;;14.88;9.95;;;;;;;;;;5048861;28;20132;-63
2023/04/10 12:38:55;;;;;;;14.77;9.63;;;;;;;;;;5047800;28;20154;-63
2023/04/10 12:41:23;;;;;;;14.65;9.57;;;;;;;;;;5050108;28;20491;-64
2023/04/10 12:43:49;;;;;;;14.98;9.77;;;;;;;;;;5049051;28;20024;-62
2023/04/10 12:46:35;;;;;;;17.45;9.60;;;;;;;;;;5051276;28;20029;-61
2023/04/10 12:49:08;;;;;;;14.70;9.60;;;;;;;;;;5054319;28;20679;-63
2023/04/10 12:51:41;;;;;;;14.93;10.02;;;;;;;;;;5037111;28;20063;-64
2023/04/10 12:54:07;;;;;;;16.13;9.88;;;;;;;;;;5052737;28;20041;-64
2023/04/10 12:56:43;;;;;;;15.20;10.13;;;;;;;;;;5055178;28;20036;-64
2023/04/10 12:59:09;;;;;;;15.15;9.93;;;;;;;;;;5040480;28;20024;-62
2023/04/10 13:01:37;;;;;;;15.48;9.57;;;;;;;;;;5054821;28;20052;-63
2023/04/10 13:04:03;;;;;;;14.80;9.68;;;;;;;;;;5036508;28;20116;-62
2023/04/10 13:06:29;;;;;;;15.02;10.05;;;;;;;;;;5054286;28;20086;-63
2023/04/10 13:08:55;;;;;;;15.10;9.73;;;;;;;;;;5053662;28;20052;-62
2023/04/10 13:11:22;;;;;;;14.82;10.05;;;;;;;;;;5055957;28;20021;-62
2023/04/10 13:13:48;;;;;;;15.23;9.90;;;;;;;;;;5050139;28;20040;-64
2023/04/10 13:16:14;;;;;;;15.05;10.23;;;;;;;;;;5047289;28;20063;-61
2023/04/10 13:18:40;;;;;;;16.02;10.80;;;;;;;;;;5071166;28;20020;-62
2023/04/10 13:21:06;;;;;;;14.93;10.07;;;;;;;;;;5051739;28;20032;-59
2023/04/10 13:23:32;;;;;;;15.05;10.10;;;;;;;;;;5054846;28;20148;-67
2023/04/10 13:25:58;;;;;;;15.10;9.85;;;;;;;;;;5053029;28;20060;-68
2023/04/10 13:28:24;;;;;;;15.20;10.07;;;;;;;;;;5048312;28;20029;-67
2023/04/10 13:30:51;;;;;;;15.05;10.32;;;;;;;;;;5047055;28;20239;-68
2023/04/10 13:33:17;;;;;;;16.70;10.25;;;;;;;;;;5045255;28;20400;-67
2023/04/10 13:35:43;;;;;;;14.57;10.10;;;;;;;;;;5054157;28;20612;-67
2023/04/10 13:38:10;;;;;;;15.32;10.40;;;;;;;;;;5053311;28;20061;-66
2023/04/10 13:40:36;;;;;;;15.30;10.38;;;;;;;;;;5054791;28;20017;-66
2023/04/10 13:43:02;;;;;;;16.70;10.30;;;;;;;;;;5053510;28;20051;-65
2023/04/10 13:45:28;;;;;;;15.55;10.13;;;;;;;;;;5054053;28;20048;-65
2023/04/10 13:47:55;;;;;;;16.27;10.65;;;;;;;;;;5053798;28;20051;-65
2023/04/10 13:50:21;;;;;;;15.77;10.27;;;;;;;;;;5053440;28;20514;-64
2023/04/10 13:52:47;;;;;;;15.45;10.55;;;;;;;;;;5052358;28;20033;-65
2023/04/10 13:55:13;;;;;;;14.60;10.00;;;;;;;;;;5051441;28;20017;-65
2023/04/10 13:57:39;;;;;;;16.88;10.60;;;;;;;;;;5054090;28;20493;-64
2023/04/10 14:00:06;;;;;;;15.05;10.50;;;;;;;;;;5056647;28;20032;-63
2023/04/10 14:02:32;;;;;;;14.65;10.10;;;;;;;;;;5042504;28;20137;-66
2023/04/10 14:04:58;;;;;;;15.43;10.40;;;;;;;;;;5055187;28;20132;-65
2023/04/10 14:07:24;;;;;;;14.70;9.95;;;;;;;;;;5038465;28;20130;-67
2023/04/10 14:09:50;;;;;;;15.25;9.88;;;;;;;;;;4340479;28;10000696;-67
2023/04/10 14:12:18;;;;;;;14.90;10.10;;;;;;;;;;5052823;28;20021;-67
2023/04/10 14:14:44;;;;;;;14.82;9.82;;;;;;;;;;5052038;28;20021;-66
2023/04/10 14:17:10;;;;;;;15.57;10.10;;;;;;;;;;5052651;28;20099;-68
2023/04/10 14:19:37;;;;;;;15.65;10.32;;;;;;;;;;5052310;28;20020;-64